• Join FlightAware (Why Join?)
  • Login
  • US Flag 
06:13PM EDT


 

Airport Tracker/Info


-or-


 

Live Flight TrackerFlight Track Log ✈ SWA508 ✈ 01-May-2013 ✈ KPIT - KMDW

Flight Track Log - Related Links

Times and Time Zones

All times are in EDT time to prevent confusion due to time zone crossing. See the SWA508 flight status page for this flight to view local times or setup timezone preferences in your user account.

Time Position Orientation Groundspeed Altitude Reporting Facility
EDT Latitude Longitude Course Direction KTS MPH feet Rate Location/Type
11:05AM 40.5506 -80.3153 286° West 290 334 10,800  Level Cleveland Center
11:06AM 40.5717 -80.4383 283° West 324 373 13,900 3,240 Climbing Cleveland Center
11:07AM 40.5944 -80.5694 283° West 352 405 17,300 2,940 Climbing Cleveland Center
11:08AM 40.6342 -80.9711 285° West  Level FlightAware Approximate
11:08AM 40.6194 -80.7033 284° West 387 445 19,800  Level Cleveland Center
11:09AM 40.6600 -81.0972 286° West  Level FlightAware Approximate
11:09AM 40.6422 -80.8458 282° West 392 451 22,600  Level Cleveland Center
11:10AM 40.6866 -81.2230 286° West  Level FlightAware Approximate
11:10AM 40.6689 -80.9908 284° West 398 458 25,200  Level Cleveland Center
11:11AM 40.6911 -81.1389 281° West 414 476 26,000 840 Climbing Cleveland Center
11:12AM 40.7175 -81.2897 283° West 419 482 26,900 960 Climbing Cleveland Center
11:13AM 40.7497 -81.4464 285° West 426 490 28,000 1,560 Climbing Cleveland Center
11:14AM 40.7797 -81.6003 284° West 433 498 30,100 1,980 Climbing Cleveland Center
11:15AM 40.8053 -81.7517 283° West 428 493 32,000 900 Climbing Cleveland Center
11:16AM 40.8311 -81.8867 284° West 428 493 32,000  Level Cleveland Center
11:17AM 40.8606 -82.0356 285° West 423 487 32,000  Level Cleveland Center
11:18AM 40.8875 -82.1869 283° West 423 487 32,000  Level Cleveland Center
11:19AM 40.9144 -82.3417 283° West 430 495 32,000  Level Cleveland Center
11:20AM 40.9472 -82.5103 284° West 437 503 32,000  Level Cleveland Center
11:21AM 40.9736 -82.6678 283° West 437 503 32,000  Level Cleveland Center
11:22AM 41.0019 -82.8256 283° West 437 503 32,000  Level Cleveland Center
11:23AM 41.0300 -82.9833 283° West 432 497 32,000  Level Cleveland Center
11:24AM 41.0558 -83.1414 282° West 438 504 32,000  Level Cleveland Center
11:25AM 41.0858 -83.2831 286° West 438 504 32,000  Level Cleveland Center
11:26AM 41.1108 -83.4550 281° West 433 498 32,000  Level Cleveland Center
11:27AM 41.1381 -83.6161 283° West 433 498 32,000  Level Cleveland Center
11:29AM 41.1878 -83.8872 284° West 444 511 32,000  Level Chicago Center
11:30AM 41.2136 -84.0475 282° West 445 512 32,000  Level Chicago Center
11:31AM 41.2411 -84.2092 283° West 448 516 32,000 -420 Level Chicago Center
11:32AM 41.2683 -84.3706 283° West 448 516 31,200 -840 Descending Chicago Center
11:33AM 41.2942 -84.5344 282° West 453 521 30,300 -600 Descending Chicago Center
11:34AM 41.3264 -84.7297 282° West 451 519 30,000 -180 Descending Chicago Center
11:35AM 41.3519 -84.8942 282° West 453 521 30,000  Level Chicago Center
11:36AM 41.3783 -85.0586 282° West 454 522 30,000 -1,080 Level Chicago Center
11:37AM 41.4028 -85.2242 281° West 453 521 27,800 -2,280 Descending Chicago Center
11:38AM 41.4281 -85.3894 282° West 451 519 25,300 -1,920 Descending Chicago Center
11:39AM 41.4531 -85.5506 282° West 439 505 23,900 -1,800 Descending Chicago Center
11:40AM 41.4711 -85.7056 279° West 419 482 21,600 -2,220 Descending Chicago Center
11:41AM 41.4825 -85.8550 276° West 405 466 19,400 -2,160 Descending Chicago Center
11:42AM 41.4925 -85.9983 275° West 390 449 17,200 -2,400 Descending Chicago Center
11:43AM 41.5056 -86.1644 276° West 376 433 14,600 -2,400 Descending Chicago Center
11:44AM 41.5158 -86.2978 276° West 364 419 12,400 -1,920 Descending Chicago Center
11:45AM 41.5233 -86.4275 274° West 354 407 10,700 -1,200 Descending Chicago Center
11:46AM 41.5211 -86.5531 269° West 342 394 10,000 -360 Descending Chicago Center
11:47AM 41.5206 -86.6758 270° West 335 386 10,000  Level Chicago Center
11:48AM 41.5200 -86.8017 270° West 332 382 10,000 -300 Level Chicago Center
11:49AM 41.5175 -86.9069 268° West 289 333 9,500 -1,140 Descending Chicago Center
11:50AM 41.5172 -87.0322 270° West 285 328 7,700 -1,620 Descending Chicago Center
11:51AM 41.5272 -87.1364 277° West 295 339 6,200 -1,140 Descending Chicago Center
11:52AM 41.5500 -87.1833 303° West 281 323 6,000 -180 Descending Chicago TRACON
11:53AM 41.5667 -87.2833 283° West 275 316 6,000 -60 Level Chicago TRACON
11:54AM 41.5833 -87.3833 283° West 278 320 5,900 -480 Descending Chicago TRACON
11:55AM 41.6025 -87.4239 302° West 278 320 5,200 -900 Descending Chicago Center
11:56AM 41.6250 -87.5150 288° West 271 312 4,400 -780 Descending Chicago Center
11:57AM 41.6700 -87.5914 308° West 236 272 3,600 -900 Descending Chicago Center
11:58AM 41.7086 -87.6464 313° West 215 247 2,600 -840 Descending Chicago Center
11:58AM 41.7167 -87.6667 298° West 194 223 2,600 -360 Level Chicago TRACON
11:59AM 41.7667 -87.6833 346° North 191 220 2,200 -540 Descending Chicago TRACON
12:00PM 41.8167 -87.7000 346° North 147 169 1,600 -600 Descending Chicago TRACON
12:03PM 41.7833 -87.7500 334° Northwest  Level FlightAware Approximate